sensor_id;sensor_type;location;lat;lon;timestamp;P1;durP1;ratioP1;P2;durP2;ratioP2
9422;SDS011;65863;49.506;10.400;2022-12-26T00:00:55;3.23;;;2.90;;
9422;SDS011;65863;49.506;10.400;2022-12-26T00:03:40;3.30;;;2.80;;
9422;SDS011;65863;49.506;10.400;2022-12-26T00:06:25;5.17;;;2.93;;
9422;SDS011;65863;49.506;10.400;2022-12-26T00:09:11;3.00;;;2.20;;
9422;SDS011;65863;49.506;10.400;2022-12-26T00:11:55;4.90;;;3.03;;
9422;SDS011;65863;49.506;10.400;2022-12-26T00:14:39;2.50;;;2.30;;
9422;SDS011;65863;49.506;10.400;2022-12-26T00:17:23;3.43;;;2.80;;
9422;SDS011;65863;49.506;10.400;2022-12-26T00:20:07;3.90;;;2.70;;
9422;SDS011;65863;49.506;10.400;2022-12-26T00:22:52;3.13;;;2.60;;
9422;SDS011;65863;49.506;10.400;2022-12-26T00:25:36;3.00;;;2.70;;
9422;SDS011;65863;49.506;10.400;2022-12-26T00:28:20;2.83;;;2.60;;
9422;SDS011;65863;49.506;10.400;2022-12-26T00:31:05;3.83;;;2.70;;
9422;SDS011;65863;49.506;10.400;2022-12-26T00:33:50;4.23;;;2.57;;
9422;SDS011;65863;49.506;10.400;2022-12-26T00:36:35;3.70;;;2.70;;
9422;SDS011;65863;49.506;10.400;2022-12-26T00:39:19;4.43;;;3.23;;
9422;SDS011;65863;49.506;10.400;2022-12-26T00:42:03;2.70;;;2.50;;
9422;SDS011;65863;49.506;10.400;2022-12-26T00:44:46;3.60;;;2.60;;
9422;SDS011;65863;49.506;10.400;2022-12-26T00:47:31;2.67;;;2.47;;
9422;SDS011;65863;49.506;10.400;2022-12-26T00:50:15;2.67;;;2.47;;
9422;SDS011;65863;49.506;10.400;2022-12-26T00:52:59;2.50;;;2.30;;
9422;SDS011;65863;49.506;10.400;2022-12-26T00:55:43;3.67;;;2.70;;
9422;SDS011;65863;49.506;10.400;2022-12-26T00:58:27;3.00;;;2.50;;
9422;SDS011;65863;49.506;10.400;2022-12-26T01:01:12;3.27;;;2.57;;
9422;SDS011;65863;49.506;10.400;2022-12-26T01:03:58;2.90;;;2.60;;
9422;SDS011;65863;49.506;10.400;2022-12-26T01:06:42;4.57;;;2.60;;
9422;SDS011;65863;49.506;10.400;2022-12-26T01:09:26;2.60;;;2.30;;
9422;SDS011;65863;49.506;10.400;2022-12-26T01:12:10;2.63;;;2.43;;
9422;SDS011;65863;49.506;10.400;2022-12-26T01:14:54;3.30;;;2.30;;
9422;SDS011;65863;49.506;10.400;2022-12-26T01:17:39;2.70;;;2.50;;
9422;SDS011;65863;49.506;10.400;2022-12-26T01:20:23;4.50;;;2.50;;
9422;SDS011;65863;49.506;10.400;2022-12-26T01:23:07;2.73;;;2.53;;
9422;SDS011;65863;49.506;10.400;2022-12-26T01:25:51;3.37;;;2.33;;
9422;SDS011;65863;49.506;10.400;2022-12-26T01:28:35;2.90;;;2.50;;
9422;SDS011;65863;49.506;10.400;2022-12-26T01:31:19;3.70;;;2.70;;
9422;SDS011;65863;49.506;10.400;2022-12-26T01:34:05;3.73;;;2.50;;
9422;SDS011;65863;49.506;10.400;2022-12-26T01:36:50;2.80;;;2.30;;
9422;SDS011;65863;49.506;10.400;2022-12-26T01:39:35;3.40;;;2.60;;
9422;SDS011;65863;49.506;10.400;2022-12-26T01:42:20;2.93;;;2.00;;
9422;SDS011;65863;49.506;10.400;2022-12-26T01:45:23;2.63;;;2.30;;
9422;SDS011;65863;49.506;10.400;2022-12-26T01:48:18;5.73;;;2.47;;
9422;SDS011;65863;49.506;10.400;2022-12-26T01:51:05;2.27;;;1.90;;
9422;SDS011;65863;49.506;10.400;2022-12-26T01:53:51;3.53;;;2.43;;
9422;SDS011;65863;49.506;10.400;2022-12-26T01:56:38;3.47;;;2.90;;
9422;SDS011;65863;49.506;10.400;2022-12-26T01:59:25;4.70;;;2.40;;
9422;SDS011;65863;49.506;10.400;2022-12-26T02:02:13;3.10;;;2.17;;
9422;SDS011;65863;49.506;10.400;2022-12-26T02:04:58;3.87;;;2.17;;
9422;SDS011;65863;49.506;10.400;2022-12-26T02:08:02;3.03;;;2.50;;
9422;SDS011;65863;49.506;10.400;2022-12-26T02:10:57;2.97;;;2.57;;
9422;SDS011;65863;49.506;10.400;2022-12-26T02:13:48;4.33;;;2.50;;
9422;SDS011;65863;49.506;10.400;2022-12-26T02:16:33;2.63;;;2.20;;
9422;SDS011;65863;49.506;10.400;2022-12-26T02:19:22;2.43;;;2.20;;
9422;SDS011;65863;49.506;10.400;2022-12-26T02:29:19;2.20;;;2.00;;
9422;SDS011;65863;49.506;10.400;2022-12-26T02:35:46;3.37;;;2.30;;
9422;SDS011;65863;49.506;10.400;2022-12-26T02:41:48;2.50;;;2.30;;
9422;SDS011;65863;49.506;10.400;2022-12-26T02:48:29;2.17;;;1.97;;
9422;SDS011;65863;49.506;10.400;2022-12-26T02:51:26;4.17;;;2.67;;
9422;SDS011;65863;49.506;10.400;2022-12-26T02:58:12;4.07;;;2.23;;
9422;SDS011;65863;49.506;10.400;2022-12-26T03:01:43;8.33;;;2.27;;
9422;SDS011;65863;49.506;10.400;2022-12-26T03:04:48;2.60;;;2.07;;
9422;SDS011;65863;49.506;10.400;2022-12-26T03:07:53;2.40;;;2.07;;
9422;SDS011;65863;49.506;10.400;2022-12-26T03:10:57;2.73;;;2.10;;
9422;SDS011;65863;49.506;10.400;2022-12-26T03:14:10;4.77;;;2.10;;
9422;SDS011;65863;49.506;10.400;2022-12-26T03:17:00;5.27;;;2.10;;
9422;SDS011;65863;49.506;10.400;2022-12-26T03:20:10;3.80;;;2.00;;
9422;SDS011;65863;49.506;10.400;2022-12-26T03:23:19;2.20;;;2.00;;
9422;SDS011;65863;49.506;10.400;2022-12-26T03:26:05;2.10;;;2.00;;
9422;SDS011;65863;49.506;10.400;2022-12-26T03:29:13;1.77;;;1.67;;
9422;SDS011;65863;49.506;10.400;2022-12-26T03:32:20;2.20;;;2.00;;
9422;SDS011;65863;49.506;10.400;2022-12-26T03:35:08;4.03;;;1.87;;
9422;SDS011;65863;49.506;10.400;2022-12-26T03:37:58;2.47;;;1.80;;
9422;SDS011;65863;49.506;10.400;2022-12-26T03:40:52;2.60;;;2.03;;
9422;SDS011;65863;49.506;10.400;2022-12-26T03:47:26;3.33;;;2.07;;
9422;SDS011;65863;49.506;10.400;2022-12-26T03:50:39;5.37;;;2.13;;
9422;SDS011;65863;49.506;10.400;2022-12-26T03:53:48;2.07;;;1.97;;
9422;SDS011;65863;49.506;10.400;2022-12-26T03:56:58;2.87;;;2.20;;
9422;SDS011;65863;49.506;10.400;2022-12-26T04:00:07;2.60;;;2.10;;
9422;SDS011;65863;49.506;10.400;2022-12-26T04:03:12;3.23;;;1.87;;
9422;SDS011;65863;49.506;10.400;2022-12-26T04:06:19;4.77;;;2.60;;
9422;SDS011;65863;49.506;10.400;2022-12-26T04:09:31;1.87;;;1.77;;
9422;SDS011;65863;49.506;10.400;2022-12-26T04:12:39;2.10;;;1.90;;
9422;SDS011;65863;49.506;10.400;2022-12-26T04:15:55;2.07;;;1.87;;
9422;SDS011;65863;49.506;10.400;2022-12-26T04:19:31;2.10;;;1.80;;
9422;SDS011;65863;49.506;10.400;2022-12-26T04:22:51;1.90;;;1.70;;
9422;SDS011;65863;49.506;10.400;2022-12-26T04:26:04;1.70;;;1.60;;
9422;SDS011;65863;49.506;10.400;2022-12-26T04:29:12;1.77;;;1.60;;
9422;SDS011;65863;49.506;10.400;2022-12-26T04:32:35;1.70;;;1.60;;
9422;SDS011;65863;49.506;10.400;2022-12-26T04:35:48;5.10;;;1.77;;
9422;SDS011;65863;49.506;10.400;2022-12-26T04:38:57;4.23;;;1.90;;
9422;SDS011;65863;49.506;10.400;2022-12-26T04:42:02;2.37;;;2.17;;
9422;SDS011;65863;49.506;10.400;2022-12-26T04:45:06;2.10;;;1.83;;
9422;SDS011;65863;49.506;10.400;2022-12-26T04:47:51;1.73;;;1.63;;
9422;SDS011;65863;49.506;10.400;2022-12-26T04:50:54;3.27;;;2.00;;
9422;SDS011;65863;49.506;10.400;2022-12-26T04:53:38;1.80;;;1.70;;
9422;SDS011;65863;49.506;10.400;2022-12-26T04:56:22;2.10;;;1.93;;
9422;SDS011;65863;49.506;10.400;2022-12-26T04:59:06;3.43;;;1.90;;
9422;SDS011;65863;49.506;10.400;2022-12-26T05:01:50;2.87;;;1.90;;
9422;SDS011;65863;49.506;10.400;2022-12-26T05:04:53;2.13;;;1.93;;
9422;SDS011;65863;49.506;10.400;2022-12-26T05:07:56;4.93;;;2.27;;
9422;SDS011;65863;49.506;10.400;2022-12-26T05:10:59;2.30;;;2.10;;
9422;SDS011;65863;49.506;10.400;2022-12-26T05:13:43;5.27;;;2.30;;
9422;SDS011;65863;49.506;10.400;2022-12-26T05:16:27;2.53;;;2.13;;
9422;SDS011;65863;49.506;10.400;2022-12-26T05:19:30;3.10;;;1.67;;
9422;SDS011;65863;49.506;10.400;2022-12-26T05:22:35;3.63;;;2.13;;
9422;SDS011;65863;49.506;10.400;2022-12-26T05:25:41;3.20;;;2.13;;
9422;SDS011;65863;49.506;10.400;2022-12-26T05:28:48;1.90;;;1.80;;
9422;SDS011;65863;49.506;10.400;2022-12-26T05:31:37;2.67;;;1.90;;
9422;SDS011;65863;49.506;10.400;2022-12-26T05:34:21;2.23;;;1.93;;
9422;SDS011;65863;49.506;10.400;2022-12-26T05:37:05;6.13;;;2.00;;
9422;SDS011;65863;49.506;10.400;2022-12-26T05:39:49;2.37;;;1.80;;
9422;SDS011;65863;49.506;10.400;2022-12-26T05:42:33;2.10;;;1.90;;
9422;SDS011;65863;49.506;10.400;2022-12-26T05:45:17;2.37;;;1.83;;
9422;SDS011;65863;49.506;10.400;2022-12-26T05:48:02;2.43;;;1.70;;
9422;SDS011;65863;49.506;10.400;2022-12-26T05:50:46;2.23;;;2.03;;
9422;SDS011;65863;49.506;10.400;2022-12-26T05:53:30;3.27;;;2.07;;
9422;SDS011;65863;49.506;10.400;2022-12-26T05:56:15;2.70;;;2.10;;
9422;SDS011;65863;49.506;10.400;2022-12-26T05:59:01;2.27;;;1.90;;
9422;SDS011;65863;49.506;10.400;2022-12-26T06:01:45;3.00;;;1.80;;
9422;SDS011;65863;49.506;10.400;2022-12-26T06:04:29;3.13;;;1.93;;
9422;SDS011;65863;49.506;10.400;2022-12-26T06:07:13;3.23;;;2.10;;
9422;SDS011;65863;49.506;10.400;2022-12-26T06:09:57;2.40;;;1.90;;
9422;SDS011;65863;49.506;10.400;2022-12-26T06:12:41;2.07;;;1.97;;
9422;SDS011;65863;49.506;10.400;2022-12-26T06:15:26;1.90;;;1.70;;
9422;SDS011;65863;49.506;10.400;2022-12-26T06:18:10;3.50;;;1.57;;
9422;SDS011;65863;49.506;10.400;2022-12-26T06:20:54;2.30;;;1.97;;
9422;SDS011;65863;49.506;10.400;2022-12-26T06:23:38;3.80;;;1.70;;
9422;SDS011;65863;49.506;10.400;2022-12-26T06:26:23;2.50;;;1.87;;
9422;SDS011;65863;49.506;10.400;2022-12-26T06:29:07;3.27;;;1.93;;
9422;SDS011;65863;49.506;10.400;2022-12-26T06:31:52;2.23;;;2.03;;
9422;SDS011;65863;49.506;10.400;2022-12-26T06:34:36;1.83;;;1.67;;
9422;SDS011;65863;49.506;10.400;2022-12-26T06:37:20;2.10;;;1.90;;
9422;SDS011;65863;49.506;10.400;2022-12-26T06:40:05;2.27;;;2.07;;
9422;SDS011;65863;49.506;10.400;2022-12-26T06:42:49;2.33;;;1.80;;
9422;SDS011;65863;49.506;10.400;2022-12-26T06:45:33;2.40;;;1.87;;
9422;SDS011;65863;49.506;10.400;2022-12-26T06:48:18;4.10;;;2.40;;
9422;SDS011;65863;49.506;10.400;2022-12-26T06:51:02;2.63;;;2.27;;
9422;SDS011;65863;49.506;10.400;2022-12-26T06:53:48;2.50;;;2.03;;
9422;SDS011;65863;49.506;10.400;2022-12-26T06:56:33;2.37;;;1.80;;
9422;SDS011;65863;49.506;10.400;2022-12-26T06:59:18;3.27;;;2.30;;
9422;SDS011;65863;49.506;10.400;2022-12-26T07:02:07;2.07;;;1.87;;
9422;SDS011;65863;49.506;10.400;2022-12-26T07:04:53;3.47;;;1.80;;
9422;SDS011;65863;49.506;10.400;2022-12-26T07:07:36;2.40;;;1.90;;
9422;SDS011;65863;49.506;10.400;2022-12-26T07:10:21;2.27;;;2.00;;
9422;SDS011;65863;49.506;10.400;2022-12-26T07:13:05;4.53;;;1.90;;
9422;SDS011;65863;49.506;10.400;2022-12-26T07:15:50;1.97;;;1.80;;
9422;SDS011;65863;49.506;10.400;2022-12-26T07:18:34;3.97;;;1.87;;
9422;SDS011;65863;49.506;10.400;2022-12-26T07:21:19;1.67;;;1.57;;
9422;SDS011;65863;49.506;10.400;2022-12-26T07:24:03;1.80;;;1.70;;
9422;SDS011;65863;49.506;10.400;2022-12-26T07:26:48;8.37;;;1.90;;
9422;SDS011;65863;49.506;10.400;2022-12-26T07:29:32;2.17;;;1.70;;
9422;SDS011;65863;49.506;10.400;2022-12-26T07:32:17;2.43;;;1.70;;
9422;SDS011;65863;49.506;10.400;2022-12-26T07:35:01;1.87;;;1.60;;
9422;SDS011;65863;49.506;10.400;2022-12-26T07:37:45;2.10;;;1.87;;
9422;SDS011;65863;49.506;10.400;2022-12-26T07:40:29;2.47;;;1.80;;
9422;SDS011;65863;49.506;10.400;2022-12-26T07:43:16;3.07;;;1.90;;
9422;SDS011;65863;49.506;10.400;2022-12-26T07:46:00;1.70;;;1.60;;
9422;SDS011;65863;49.506;10.400;2022-12-26T07:48:44;1.80;;;1.40;;
9422;SDS011;65863;49.506;10.400;2022-12-26T07:51:28;1.90;;;1.70;;
9422;SDS011;65863;49.506;10.400;2022-12-26T07:54:12;3.00;;;1.70;;
9422;SDS011;65863;49.506;10.400;2022-12-26T07:56:57;2.37;;;1.70;;
9422;SDS011;65863;49.506;10.400;2022-12-26T07:59:41;2.47;;;1.90;;
9422;SDS011;65863;49.506;10.400;2022-12-26T08:02:25;2.20;;;2.00;;
9422;SDS011;65863;49.506;10.400;2022-12-26T08:05:09;2.33;;;1.70;;
9422;SDS011;65863;49.506;10.400;2022-12-26T08:07:53;2.43;;;1.80;;
9422;SDS011;65863;49.506;10.400;2022-12-26T08:10:37;2.43;;;1.70;;
9422;SDS011;65863;49.506;10.400;2022-12-26T08:13:21;1.97;;;1.80;;
9422;SDS011;65863;49.506;10.400;2022-12-26T08:16:06;2.17;;;1.80;;
9422;SDS011;65863;49.506;10.400;2022-12-26T08:18:51;5.93;;;2.10;;
9422;SDS011;65863;49.506;10.400;2022-12-26T08:21:35;2.00;;;1.90;;
9422;SDS011;65863;49.506;10.400;2022-12-26T08:24:19;2.00;;;1.90;;
9422;SDS011;65863;49.506;10.400;2022-12-26T08:27:03;4.27;;;2.53;;
9422;SDS011;65863;49.506;10.400;2022-12-26T08:29:47;4.30;;;1.90;;
9422;SDS011;65863;49.506;10.400;2022-12-26T08:32:31;2.37;;;2.17;;
9422;SDS011;65863;49.506;10.400;2022-12-26T08:35:15;2.53;;;2.00;;
9422;SDS011;65863;49.506;10.400;2022-12-26T08:38:01;2.87;;;2.20;;
9422;SDS011;65863;49.506;10.400;2022-12-26T08:40:51;2.83;;;1.87;;
9422;SDS011;65863;49.506;10.400;2022-12-26T08:43:37;3.87;;;1.67;;
9422;SDS011;65863;49.506;10.400;2022-12-26T08:46:21;3.23;;;2.20;;
9422;SDS011;65863;49.506;10.400;2022-12-26T08:49:06;2.10;;;1.90;;
9422;SDS011;65863;49.506;10.400;2022-12-26T08:51:50;2.07;;;1.87;;
9422;SDS011;65863;49.506;10.400;2022-12-26T08:54:34;2.37;;;1.90;;
9422;SDS011;65863;49.506;10.400;2022-12-26T08:57:19;3.60;;;2.00;;
9422;SDS011;65863;49.506;10.400;2022-12-26T09:00:03;2.47;;;1.80;;
9422;SDS011;65863;49.506;10.400;2022-12-26T09:02:48;2.43;;;1.93;;
9422;SDS011;65863;49.506;10.400;2022-12-26T09:05:32;2.20;;;2.00;;
9422;SDS011;65863;49.506;10.400;2022-12-26T09:08:16;3.30;;;2.00;;
9422;SDS011;65863;49.506;10.400;2022-12-26T09:11:01;4.00;;;2.40;;
9422;SDS011;65863;49.506;10.400;2022-12-26T09:13:48;2.37;;;2.03;;
9422;SDS011;65863;49.506;10.400;2022-12-26T09:16:33;2.50;;;1.90;;
9422;SDS011;65863;49.506;10.400;2022-12-26T09:19:21;2.17;;;1.97;;
9422;SDS011;65863;49.506;10.400;2022-12-26T09:22:05;6.10;;;2.20;;
9422;SDS011;65863;49.506;10.400;2022-12-26T09:25:08;3.63;;;2.45;;
9422;SDS011;65863;49.506;10.400;2022-12-26T09:27:53;3.07;;;2.03;;
9422;SDS011;65863;49.506;10.400;2022-12-26T09:30:37;3.30;;;2.43;;
9422;SDS011;65863;49.506;10.400;2022-12-26T09:33:21;2.37;;;2.17;;
9422;SDS011;65863;49.506;10.400;2022-12-26T09:36:06;3.73;;;2.10;;
9422;SDS011;65863;49.506;10.400;2022-12-26T09:38:53;3.70;;;2.30;;
9422;SDS011;65863;49.506;10.400;2022-12-26T09:50:56;4.80;;;2.30;;
9422;SDS011;65863;49.506;10.400;2022-12-26T09:53:40;3.53;;;2.10;;
9422;SDS011;65863;49.506;10.400;2022-12-26T09:56:26;4.30;;;1.90;;
9422;SDS011;65863;49.506;10.400;2022-12-26T09:59:16;4.47;;;2.10;;
9422;SDS011;65863;49.506;10.400;2022-12-26T10:02:07;7.77;;;6.97;;
9422;SDS011;65863;49.506;10.400;2022-12-26T10:04:59;3.20;;;2.90;;
9422;SDS011;65863;49.506;10.400;2022-12-26T10:07:45;2.63;;;2.03;;
9422;SDS011;65863;49.506;10.400;2022-12-26T10:10:37;3.47;;;2.43;;
9422;SDS011;65863;49.506;10.400;2022-12-26T10:25:23;2.93;;;2.03;;
9422;SDS011;65863;49.506;10.400;2022-12-26T10:28:14;2.60;;;1.90;;
9422;SDS011;65863;49.506;10.400;2022-12-26T10:31:18;3.43;;;1.90;;
9422;SDS011;65863;49.506;10.400;2022-12-26T10:34:11;1.90;;;1.67;;
9422;SDS011;65863;49.506;10.400;2022-12-26T10:40:26;3.90;;;3.47;;
9422;SDS011;65863;49.506;10.400;2022-12-26T10:43:21;3.60;;;3.30;;
9422;SDS011;65863;49.506;10.400;2022-12-26T10:46:22;5.20;;;3.57;;
9422;SDS011;65863;49.506;10.400;2022-12-26T10:49:11;2.30;;;2.10;;
9422;SDS011;65863;49.506;10.400;2022-12-26T10:51:58;2.43;;;1.83;;
9422;SDS011;65863;49.506;10.400;2022-12-26T10:54:44;2.30;;;1.70;;
9422;SDS011;65863;49.506;10.400;2022-12-26T10:57:34;2.83;;;2.20;;
9422;SDS011;65863;49.506;10.400;2022-12-26T11:00:23;1.40;;;1.30;;
9422;SDS011;65863;49.506;10.400;2022-12-26T11:03:11;1.83;;;1.73;;
9422;SDS011;65863;49.506;10.400;2022-12-26T11:05:56;1.93;;;1.70;;
9422;SDS011;65863;49.506;10.400;2022-12-26T11:08:48;3.17;;;1.43;;
9422;SDS011;65863;49.506;10.400;2022-12-26T11:11:33;5.10;;;1.57;;
9422;SDS011;65863;49.506;10.400;2022-12-26T11:14:38;1.80;;;1.50;;
9422;SDS011;65863;49.506;10.400;2022-12-26T11:17:24;3.03;;;1.70;;
9422;SDS011;65863;49.506;10.400;2022-12-26T11:26:24;2.47;;;2.10;;
9422;SDS011;65863;49.506;10.400;2022-12-26T11:29:11;2.63;;;1.80;;
9422;SDS011;65863;49.506;10.400;2022-12-26T11:32:01;2.30;;;2.10;;
9422;SDS011;65863;49.506;10.400;2022-12-26T11:34:46;2.33;;;2.17;;
9422;SDS011;65863;49.506;10.400;2022-12-26T11:37:35;4.07;;;3.17;;
9422;SDS011;65863;49.506;10.400;2022-12-26T11:40:38;4.87;;;3.90;;
9422;SDS011;65863;49.506;10.400;2022-12-26T11:43:49;2.27;;;1.40;;
9422;SDS011;65863;49.506;10.400;2022-12-26T11:55:32;1.40;;;1.30;;
9422;SDS011;65863;49.506;10.400;2022-12-26T11:58:20;2.20;;;1.60;;
9422;SDS011;65863;49.506;10.400;2022-12-26T12:01:06;2.00;;;1.53;;
9422;SDS011;65863;49.506;10.400;2022-12-26T12:03:55;1.30;;;1.20;;
9422;SDS011;65863;49.506;10.400;2022-12-26T12:09:44;2.33;;;1.30;;
9422;SDS011;65863;49.506;10.400;2022-12-26T12:12:43;1.50;;;1.40;;
9422;SDS011;65863;49.506;10.400;2022-12-26T12:15:47;2.37;;;2.17;;
9422;SDS011;65863;49.506;10.400;2022-12-26T12:19:00;1.60;;;1.50;;
9422;SDS011;65863;49.506;10.400;2022-12-26T12:25:02;1.60;;;1.40;;
9422;SDS011;65863;49.506;10.400;2022-12-26T12:28:29;1.63;;;1.53;;
9422;SDS011;65863;49.506;10.400;2022-12-26T12:34:36;1.60;;;1.50;;
9422;SDS011;65863;49.506;10.400;2022-12-26T12:37:32;3.53;;;1.50;;
9422;SDS011;65863;49.506;10.400;2022-12-26T12:56:08;1.40;;;1.30;;
9422;SDS011;65863;49.506;10.400;2022-12-26T12:59:24;2.47;;;1.50;;
9422;SDS011;65863;49.506;10.400;2022-12-26T13:03:10;1.40;;;1.30;;
9422;SDS011;65863;49.506;10.400;2022-12-26T13:05:48;1.93;;;1.30;;
9422;SDS011;65863;49.506;10.400;2022-12-26T13:08:58;1.83;;;1.60;;
9422;SDS011;65863;49.506;10.400;2022-12-26T13:14:45;2.70;;;1.50;;
9422;SDS011;65863;49.506;10.400;2022-12-26T13:17:52;1.63;;;1.50;;
9422;SDS011;65863;49.506;10.400;2022-12-26T13:20:45;1.40;;;1.30;;
9422;SDS011;65863;49.506;10.400;2022-12-26T13:23:52;2.17;;;1.30;;
9422;SDS011;65863;49.506;10.400;2022-12-26T13:27:03;1.40;;;1.30;;
9422;SDS011;65863;49.506;10.400;2022-12-26T13:29:56;1.87;;;1.57;;
9422;SDS011;65863;49.506;10.400;2022-12-26T13:32:40;1.40;;;1.30;;
9422;SDS011;65863;49.506;10.400;2022-12-26T13:41:45;4.00;;;1.53;;
9422;SDS011;65863;49.506;10.400;2022-12-26T13:44:50;3.90;;;1.33;;
9422;SDS011;65863;49.506;10.400;2022-12-26T13:47:38;1.50;;;1.40;;
9422;SDS011;65863;49.506;10.400;2022-12-26T13:53:39;4.70;;;1.60;;
9422;SDS011;65863;49.506;10.400;2022-12-26T14:12:04;2.70;;;1.67;;
9422;SDS011;65863;49.506;10.400;2022-12-26T14:24:36;1.90;;;1.23;;
9422;SDS011;65863;49.506;10.400;2022-12-26T14:27:47;2.23;;;1.37;;
9422;SDS011;65863;49.506;10.400;2022-12-26T14:30:37;1.70;;;1.60;;
9422;SDS011;65863;49.506;10.400;2022-12-26T14:33:38;1.30;;;1.20;;
9422;SDS011;65863;49.506;10.400;2022-12-26T14:39:56;1.47;;;1.37;;
9422;SDS011;65863;49.506;10.400;2022-12-26T14:45:53;3.23;;;1.20;;
9422;SDS011;65863;49.506;10.400;2022-12-26T14:48:39;1.40;;;1.30;;
9422;SDS011;65863;49.506;10.400;2022-12-26T14:51:30;1.60;;;1.50;;
9422;SDS011;65863;49.506;10.400;2022-12-26T15:00:27;1.00;;;1.00;;
9422;SDS011;65863;49.506;10.400;2022-12-26T15:33:54;2.73;;;1.20;;
9422;SDS011;65863;49.506;10.400;2022-12-26T15:36:48;1.50;;;1.40;;
9422;SDS011;65863;49.506;10.400;2022-12-26T15:39:47;1.30;;;1.20;;
9422;SDS011;65863;49.506;10.400;2022-12-26T15:46:17;3.80;;;1.30;;
9422;SDS011;65863;49.506;10.400;2022-12-26T15:58:25;1.27;;;1.17;;
9422;SDS011;65863;49.506;10.400;2022-12-26T16:04:42;1.43;;;1.27;;
9422;SDS011;65863;49.506;10.400;2022-12-26T16:07:38;1.30;;;1.20;;
9422;SDS011;65863;49.506;10.400;2022-12-26T16:10:32;1.20;;;1.10;;
9422;SDS011;65863;49.506;10.400;2022-12-26T16:13:17;1.37;;;1.27;;
9422;SDS011;65863;49.506;10.400;2022-12-26T16:16:07;1.40;;;1.30;;
9422;SDS011;65863;49.506;10.400;2022-12-26T16:18:52;2.20;;;1.30;;
9422;SDS011;65863;49.506;10.400;2022-12-26T16:21:36;2.37;;;2.13;;
9422;SDS011;65863;49.506;10.400;2022-12-26T16:24:40;1.60;;;1.50;;
9422;SDS011;65863;49.506;10.400;2022-12-26T16:27:26;1.93;;;1.00;;
9422;SDS011;65863;49.506;10.400;2022-12-26T16:30:14;1.27;;;1.13;;
9422;SDS011;65863;49.506;10.400;2022-12-26T16:33:01;1.03;;;1.00;;
9422;SDS011;65863;49.506;10.400;2022-12-26T16:35:46;2.10;;;1.17;;
9422;SDS011;65863;49.506;10.400;2022-12-26T16:38:30;3.23;;;1.23;;
9422;SDS011;65863;49.506;10.400;2022-12-26T16:44:26;1.53;;;1.43;;
9422;SDS011;65863;49.506;10.400;2022-12-26T16:47:21;2.50;;;1.43;;
9422;SDS011;65863;49.506;10.400;2022-12-26T16:50:05;4.77;;;1.73;;
9422;SDS011;65863;49.506;10.400;2022-12-26T16:53:00;1.67;;;1.57;;
9422;SDS011;65863;49.506;10.400;2022-12-26T16:55:54;1.70;;;1.30;;
9422;SDS011;65863;49.506;10.400;2022-12-26T16:58:43;2.27;;;2.00;;
9422;SDS011;65863;49.506;10.400;2022-12-26T17:01:28;3.00;;;1.90;;
9422;SDS011;65863;49.506;10.400;2022-12-26T17:04:16;1.93;;;1.83;;
9422;SDS011;65863;49.506;10.400;2022-12-26T17:07:04;1.70;;;1.60;;
9422;SDS011;65863;49.506;10.400;2022-12-26T17:09:52;1.70;;;1.60;;
9422;SDS011;65863;49.506;10.400;2022-12-26T17:12:39;1.90;;;1.80;;
9422;SDS011;65863;49.506;10.400;2022-12-26T17:15:24;2.13;;;1.70;;
9422;SDS011;65863;49.506;10.400;2022-12-26T17:21:28;2.13;;;1.93;;
9422;SDS011;65863;49.506;10.400;2022-12-26T17:24:18;2.23;;;2.07;;
9422;SDS011;65863;49.506;10.400;2022-12-26T17:27:07;1.73;;;1.50;;
9422;SDS011;65863;49.506;10.400;2022-12-26T17:29:58;3.77;;;1.80;;
9422;SDS011;65863;49.506;10.400;2022-12-26T17:32:44;2.07;;;1.80;;
9422;SDS011;65863;49.506;10.400;2022-12-26T17:35:30;2.10;;;1.90;;
9422;SDS011;65863;49.506;10.400;2022-12-26T17:38:19;1.80;;;1.60;;
9422;SDS011;65863;49.506;10.400;2022-12-26T17:41:06;1.73;;;1.63;;
9422;SDS011;65863;49.506;10.400;2022-12-26T17:43:52;1.50;;;1.40;;
9422;SDS011;65863;49.506;10.400;2022-12-26T17:46:36;2.07;;;1.50;;
9422;SDS011;65863;49.506;10.400;2022-12-26T17:49:20;2.20;;;1.70;;
9422;SDS011;65863;49.506;10.400;2022-12-26T17:52:04;2.03;;;1.90;;
9422;SDS011;65863;49.506;10.400;2022-12-26T17:54:49;2.13;;;1.67;;
9422;SDS011;65863;49.506;10.400;2022-12-26T17:57:34;1.60;;;1.50;;
9422;SDS011;65863;49.506;10.400;2022-12-26T18:00:22;4.00;;;1.60;;
9422;SDS011;65863;49.506;10.400;2022-12-26T18:03:07;3.07;;;1.60;;
9422;SDS011;65863;49.506;10.400;2022-12-26T18:05:52;2.00;;;1.77;;
9422;SDS011;65863;49.506;10.400;2022-12-26T18:08:39;1.57;;;1.40;;
9422;SDS011;65863;49.506;10.400;2022-12-26T18:11:24;1.70;;;1.30;;
9422;SDS011;65863;49.506;10.400;2022-12-26T18:14:10;2.73;;;1.30;;
9422;SDS011;65863;49.506;10.400;2022-12-26T18:16:56;1.60;;;1.30;;
9422;SDS011;65863;49.506;10.400;2022-12-26T18:19:46;2.27;;;1.57;;
9422;SDS011;65863;49.506;10.400;2022-12-26T18:22:32;10.47;;;2.27;;
9422;SDS011;65863;49.506;10.400;2022-12-26T18:25:18;1.30;;;0.80;;
9422;SDS011;65863;49.506;10.400;2022-12-26T18:28:11;1.43;;;0.80;;
9422;SDS011;65863;49.506;10.400;2022-12-26T18:30:58;3.73;;;1.00;;
9422;SDS011;65863;49.506;10.400;2022-12-26T18:33:41;4.13;;;1.20;;
9422;SDS011;65863;49.506;10.400;2022-12-26T18:36:30;1.00;;;0.87;;
9422;SDS011;65863;49.506;10.400;2022-12-26T18:39:16;2.43;;;1.00;;
9422;SDS011;65863;49.506;10.400;2022-12-26T18:42:00;1.43;;;1.33;;
9422;SDS011;65863;49.506;10.400;2022-12-26T18:44:45;0.87;;;0.87;;
9422;SDS011;65863;49.506;10.400;2022-12-26T18:47:29;0.80;;;0.70;;
9422;SDS011;65863;49.506;10.400;2022-12-26T18:50:14;0.63;;;0.63;;
9422;SDS011;65863;49.506;10.400;2022-12-26T18:52:58;0.87;;;0.83;;
9422;SDS011;65863;49.506;10.400;2022-12-26T18:55:43;0.70;;;0.70;;
9422;SDS011;65863;49.506;10.400;2022-12-26T18:58:27;1.33;;;0.40;;
9422;SDS011;65863;49.506;10.400;2022-12-26T19:01:14;2.47;;;0.70;;
9422;SDS011;65863;49.506;10.400;2022-12-26T19:03:59;0.47;;;0.47;;
9422;SDS011;65863;49.506;10.400;2022-12-26T19:06:43;1.17;;;0.50;;
9422;SDS011;65863;49.506;10.400;2022-12-26T19:09:28;0.40;;;0.40;;
9422;SDS011;65863;49.506;10.400;2022-12-26T19:12:11;4.27;;;1.80;;
9422;SDS011;65863;49.506;10.400;2022-12-26T19:14:56;1.40;;;1.30;;
9422;SDS011;65863;49.506;10.400;2022-12-26T19:17:40;1.77;;;1.67;;
9422;SDS011;65863;49.506;10.400;2022-12-26T19:20:26;1.53;;;0.77;;
9422;SDS011;65863;49.506;10.400;2022-12-26T19:23:10;2.50;;;0.73;;
9422;SDS011;65863;49.506;10.400;2022-12-26T19:25:54;1.17;;;0.90;;
9422;SDS011;65863;49.506;10.400;2022-12-26T19:28:38;0.60;;;0.60;;
9422;SDS011;65863;49.506;10.400;2022-12-26T19:31:23;0.90;;;0.90;;
9422;SDS011;65863;49.506;10.400;2022-12-26T19:34:06;2.10;;;1.30;;
9422;SDS011;65863;49.506;10.400;2022-12-26T19:36:52;1.47;;;1.10;;
9422;SDS011;65863;49.506;10.400;2022-12-26T19:39:37;0.70;;;0.70;;
9422;SDS011;65863;49.506;10.400;2022-12-26T19:42:21;1.00;;;1.00;;
9422;SDS011;65863;49.506;10.400;2022-12-26T19:45:05;1.50;;;1.40;;
9422;SDS011;65863;49.506;10.400;2022-12-26T19:47:51;1.40;;;1.30;;
9422;SDS011;65863;49.506;10.400;2022-12-26T19:50:35;1.50;;;1.40;;
9422;SDS011;65863;49.506;10.400;2022-12-26T19:53:20;1.40;;;1.30;;
9422;SDS011;65863;49.506;10.400;2022-12-26T19:56:14;0.60;;;0.60;;
9422;SDS011;65863;49.506;10.400;2022-12-26T19:58:59;0.50;;;0.50;;
9422;SDS011;65863;49.506;10.400;2022-12-26T20:01:44;1.13;;;0.73;;
9422;SDS011;65863;49.506;10.400;2022-12-26T20:04:28;1.50;;;0.40;;
9422;SDS011;65863;49.506;10.400;2022-12-26T20:07:12;0.60;;;0.60;;
9422;SDS011;65863;49.506;10.400;2022-12-26T20:09:56;1.40;;;0.90;;
9422;SDS011;65863;49.506;10.400;2022-12-26T20:12:40;1.30;;;0.80;;
9422;SDS011;65863;49.506;10.400;2022-12-26T20:15:24;1.80;;;0.70;;
9422;SDS011;65863;49.506;10.400;2022-12-26T20:18:08;0.53;;;0.53;;